Аэропорт: Курск-Восточный . Курск

ICAO: UUOK

METAR:
2022-06-26 11:30:00
UUOK 261130Z 08006MPS 030V110 CAVOK 28/11 Q1019 R12/090060 NOSIG RMK QFE746/0995
METAR:
Информация по данной станции не доступна